Terminal Aerodrome Forecast
Issued by NWS Cleveland, OH

Home | Current Version | Previous Version | Text Only | Print | Product List | Glossary Off
Versions: 1 2 3 4 5 6 7 8 9 10 11 12 13 14 15 16 17

000
FTUS41 KCLE 232330
TAFCAK
TAF
KCAK 232330Z 2400/2424 25005KT P6SM -TSRA SCT035CB BKN090
     FM240200 VRB03KT P6SM VCTS SCT029CB BKN150
     FM240400 VRB03KT P6SM SCT025
     FM240500 26004KT 6SM BR SCT025
     FM241100 26005KT 4SM BR SCT040 BKN150
     FM241300 28006KT P6SM BKN035
     FM242000 29008KT P6SM SCT045=

USA.gov is the U.S. government's official web portal to all federal, state and local government web resources and services.